sensor_id;sensor_type;location;lat;lon;timestamp;temperature;humidity
15777;DHT22;7989;51.198;6.676;2022-10-31T00:01:42;15.20;99.90
15777;DHT22;7989;51.198;6.676;2022-10-31T00:04:09;15.20;99.90
15777;DHT22;7989;51.198;6.676;2022-10-31T00:06:35;15.10;99.90
15777;DHT22;7989;51.198;6.676;2022-10-31T00:09:03;15.10;99.90
15777;DHT22;7989;51.198;6.676;2022-10-31T00:11:30;15.10;99.90
15777;DHT22;7989;51.198;6.676;2022-10-31T00:13:58;15.20;99.90
15777;DHT22;7989;51.198;6.676;2022-10-31T00:16:27;15.20;99.90
15777;DHT22;7989;51.198;6.676;2022-10-31T00:18:55;15.20;99.90
15777;DHT22;7989;51.198;6.676;2022-10-31T00:21:22;15.20;99.90
15777;DHT22;7989;51.198;6.676;2022-10-31T00:23:50;15.20;99.90
15777;DHT22;7989;51.198;6.676;2022-10-31T00:26:17;15.20;99.90
15777;DHT22;7989;51.198;6.676;2022-10-31T00:28:45;15.20;99.90
15777;DHT22;7989;51.198;6.676;2022-10-31T00:31:12;15.10;99.90
15777;DHT22;7989;51.198;6.676;2022-10-31T00:33:41;15.10;99.90
15777;DHT22;7989;51.198;6.676;2022-10-31T00:36:12;15.10;99.90
15777;DHT22;7989;51.198;6.676;2022-10-31T00:38:39;15.20;99.90
15777;DHT22;7989;51.198;6.676;2022-10-31T00:41:06;15.20;99.90
15777;DHT22;7989;51.198;6.676;2022-10-31T00:43:33;15.20;99.90
15777;DHT22;7989;51.198;6.676;2022-10-31T00:46:00;15.20;99.90
15777;DHT22;7989;51.198;6.676;2022-10-31T00:48:26;15.20;99.90
15777;DHT22;7989;51.198;6.676;2022-10-31T00:50:55;15.30;99.90
15777;DHT22;7989;51.198;6.676;2022-10-31T00:53:21;15.20;99.90
15777;DHT22;7989;51.198;6.676;2022-10-31T00:55:48;15.20;99.90
15777;DHT22;7989;51.198;6.676;2022-10-31T00:58:15;15.20;99.90
15777;DHT22;7989;51.198;6.676;2022-10-31T01:00:42;15.30;99.90
15777;DHT22;7989;51.198;6.676;2022-10-31T01:03:09;15.30;99.90
15777;DHT22;7989;51.198;6.676;2022-10-31T01:05:36;15.30;99.90
15777;DHT22;7989;51.198;6.676;2022-10-31T01:08:04;15.40;99.90
15777;DHT22;7989;51.198;6.676;2022-10-31T01:10:31;15.40;99.90
15777;DHT22;7989;51.198;6.676;2022-10-31T01:12:57;15.50;99.90
15777;DHT22;7989;51.198;6.676;2022-10-31T01:15:24;15.40;99.90
15777;DHT22;7989;51.198;6.676;2022-10-31T01:17:51;15.50;99.90
15777;DHT22;7989;51.198;6.676;2022-10-31T01:20:18;15.50;99.90
15777;DHT22;7989;51.198;6.676;2022-10-31T01:22:45;15.40;99.90
15777;DHT22;7989;51.198;6.676;2022-10-31T01:25:13;15.40;99.90
15777;DHT22;7989;51.198;6.676;2022-10-31T01:27:40;15.40;99.90
15777;DHT22;7989;51.198;6.676;2022-10-31T01:30:07;15.40;99.90
15777;DHT22;7989;51.198;6.676;2022-10-31T01:32:34;15.40;99.90
15777;DHT22;7989;51.198;6.676;2022-10-31T01:35:01;15.40;99.90
15777;DHT22;7989;51.198;6.676;2022-10-31T01:37:28;15.30;99.90
15777;DHT22;7989;51.198;6.676;2022-10-31T01:39:56;15.30;99.90
15777;DHT22;7989;51.198;6.676;2022-10-31T01:42:25;15.20;99.90
15777;DHT22;7989;51.198;6.676;2022-10-31T01:45:00;15.20;99.90
15777;DHT22;7989;51.198;6.676;2022-10-31T01:47:34;15.20;99.90
15777;DHT22;7989;51.198;6.676;2022-10-31T01:50:06;15.20;99.90
15777;DHT22;7989;51.198;6.676;2022-10-31T01:52:38;15.20;99.90
15777;DHT22;7989;51.198;6.676;2022-10-31T01:55:08;15.20;99.90
15777;DHT22;7989;51.198;6.676;2022-10-31T01:57:38;15.20;99.90
15777;DHT22;7989;51.198;6.676;2022-10-31T02:00:08;15.10;99.90
15777;DHT22;7989;51.198;6.676;2022-10-31T02:02:36;15.10;99.90
15777;DHT22;7989;51.198;6.676;2022-10-31T02:05:05;15.00;99.90
15777;DHT22;7989;51.198;6.676;2022-10-31T02:07:36;15.00;99.90
15777;DHT22;7989;51.198;6.676;2022-10-31T02:10:05;15.00;99.90
15777;DHT22;7989;51.198;6.676;2022-10-31T02:12:32;15.00;99.90
15777;DHT22;7989;51.198;6.676;2022-10-31T02:15:03;14.90;99.90
15777;DHT22;7989;51.198;6.676;2022-10-31T02:17:31;14.80;99.90
15777;DHT22;7989;51.198;6.676;2022-10-31T02:20:06;14.80;99.90
15777;DHT22;7989;51.198;6.676;2022-10-31T02:22:43;14.80;99.90
15777;DHT22;7989;51.198;6.676;2022-10-31T02:25:27;14.80;99.90
15777;DHT22;7989;51.198;6.676;2022-10-31T02:31:18;14.90;99.90
15777;DHT22;7989;51.198;6.676;2022-10-31T02:33:52;14.90;99.90
15777;DHT22;7989;51.198;6.676;2022-10-31T02:36:23;15.00;99.90
15777;DHT22;7989;51.198;6.676;2022-10-31T02:39:00;15.00;99.90
15777;DHT22;7989;51.198;6.676;2022-10-31T02:41:34;15.00;99.90
15777;DHT22;7989;51.198;6.676;2022-10-31T02:44:07;14.90;99.90
15777;DHT22;7989;51.198;6.676;2022-10-31T02:46:42;15.00;99.90
15777;DHT22;7989;51.198;6.676;2022-10-31T02:49:16;15.00;99.90
15777;DHT22;7989;51.198;6.676;2022-10-31T02:51:45;15.10;99.90
15777;DHT22;7989;51.198;6.676;2022-10-31T02:54:18;15.00;99.90
15777;DHT22;7989;51.198;6.676;2022-10-31T02:56:46;15.00;99.90
15777;DHT22;7989;51.198;6.676;2022-10-31T02:59:14;15.00;99.90
15777;DHT22;7989;51.198;6.676;2022-10-31T03:01:57;14.80;99.90
15777;DHT22;7989;51.198;6.676;2022-10-31T03:04:38;14.70;99.90
15777;DHT22;7989;51.198;6.676;2022-10-31T03:07:16;14.70;99.90
15777;DHT22;7989;51.198;6.676;2022-10-31T03:09:52;14.70;99.90
15777;DHT22;7989;51.198;6.676;2022-10-31T03:12:25;14.70;99.90
15777;DHT22;7989;51.198;6.676;2022-10-31T03:14:59;14.50;99.90
15777;DHT22;7989;51.198;6.676;2022-10-31T03:17:35;14.40;99.90
15777;DHT22;7989;51.198;6.676;2022-10-31T03:20:04;14.40;99.90
15777;DHT22;7989;51.198;6.676;2022-10-31T03:22:34;14.40;99.90
15777;DHT22;7989;51.198;6.676;2022-10-31T03:25:04;14.30;99.90
15777;DHT22;7989;51.198;6.676;2022-10-31T03:27:33;14.30;99.90
15777;DHT22;7989;51.198;6.676;2022-10-31T03:30:03;14.20;99.90
15777;DHT22;7989;51.198;6.676;2022-10-31T03:32:37;14.20;99.90
15777;DHT22;7989;51.198;6.676;2022-10-31T03:35:06;14.20;99.90
15777;DHT22;7989;51.198;6.676;2022-10-31T03:37:35;14.20;99.90
15777;DHT22;7989;51.198;6.676;2022-10-31T03:40:05;14.10;99.90
15777;DHT22;7989;51.198;6.676;2022-10-31T03:42:37;14.10;99.90
15777;DHT22;7989;51.198;6.676;2022-10-31T03:45:07;14.10;99.90
15777;DHT22;7989;51.198;6.676;2022-10-31T03:47:39;14.00;99.90
15777;DHT22;7989;51.198;6.676;2022-10-31T03:50:08;14.00;99.90
15777;DHT22;7989;51.198;6.676;2022-10-31T03:52:40;14.00;99.90
15777;DHT22;7989;51.198;6.676;2022-10-31T03:55:11;13.90;99.90
15777;DHT22;7989;51.198;6.676;2022-10-31T03:57:43;14.00;99.90
15777;DHT22;7989;51.198;6.676;2022-10-31T04:00:13;13.90;99.90
15777;DHT22;7989;51.198;6.676;2022-10-31T04:02:45;13.90;99.90
15777;DHT22;7989;51.198;6.676;2022-10-31T04:05:13;13.90;99.90
15777;DHT22;7989;51.198;6.676;2022-10-31T04:07:45;13.80;99.90
15777;DHT22;7989;51.198;6.676;2022-10-31T04:10:14;13.80;99.90
15777;DHT22;7989;51.198;6.676;2022-10-31T04:12:44;13.80;99.90
15777;DHT22;7989;51.198;6.676;2022-10-31T04:15:12;13.80;99.90
15777;DHT22;7989;51.198;6.676;2022-10-31T04:17:44;13.80;99.90
15777;DHT22;7989;51.198;6.676;2022-10-31T04:20:15;13.80;99.90
15777;DHT22;7989;51.198;6.676;2022-10-31T04:22:42;13.80;99.90
15777;DHT22;7989;51.198;6.676;2022-10-31T04:25:09;13.80;99.90
15777;DHT22;7989;51.198;6.676;2022-10-31T04:27:36;13.70;99.90
15777;DHT22;7989;51.198;6.676;2022-10-31T04:30:03;13.70;99.90
15777;DHT22;7989;51.198;6.676;2022-10-31T04:32:30;13.70;99.90
15777;DHT22;7989;51.198;6.676;2022-10-31T04:34:58;13.70;99.90
15777;DHT22;7989;51.198;6.676;2022-10-31T04:37:25;13.70;99.90
15777;DHT22;7989;51.198;6.676;2022-10-31T04:39:52;13.70;99.90
15777;DHT22;7989;51.198;6.676;2022-10-31T04:42:18;13.70;99.90
15777;DHT22;7989;51.198;6.676;2022-10-31T04:44:45;13.70;99.90
15777;DHT22;7989;51.198;6.676;2022-10-31T04:47:12;13.70;99.90
15777;DHT22;7989;51.198;6.676;2022-10-31T04:49:38;13.70;99.90
15777;DHT22;7989;51.198;6.676;2022-10-31T04:52:07;13.70;99.90
15777;DHT22;7989;51.198;6.676;2022-10-31T04:54:33;13.70;99.90
15777;DHT22;7989;51.198;6.676;2022-10-31T04:57:00;13.60;99.90
15777;DHT22;7989;51.198;6.676;2022-10-31T04:59:27;13.60;99.90
15777;DHT22;7989;51.198;6.676;2022-10-31T05:01:54;13.60;99.90
15777;DHT22;7989;51.198;6.676;2022-10-31T05:04:20;13.60;99.90
15777;DHT22;7989;51.198;6.676;2022-10-31T05:06:47;13.60;99.90
15777;DHT22;7989;51.198;6.676;2022-10-31T05:09:15;13.60;99.90
15777;DHT22;7989;51.198;6.676;2022-10-31T05:11:42;13.60;99.90
15777;DHT22;7989;51.198;6.676;2022-10-31T05:14:09;13.60;99.90
15777;DHT22;7989;51.198;6.676;2022-10-31T05:16:36;13.60;99.90
15777;DHT22;7989;51.198;6.676;2022-10-31T05:19:02;13.60;99.90
15777;DHT22;7989;51.198;6.676;2022-10-31T05:21:29;13.60;99.90
15777;DHT22;7989;51.198;6.676;2022-10-31T05:23:56;13.60;99.90
15777;DHT22;7989;51.198;6.676;2022-10-31T05:26:24;13.60;99.90
15777;DHT22;7989;51.198;6.676;2022-10-31T05:28:51;13.60;99.90
15777;DHT22;7989;51.198;6.676;2022-10-31T05:31:18;13.60;99.90
15777;DHT22;7989;51.198;6.676;2022-10-31T05:33:45;13.50;99.90
15777;DHT22;7989;51.198;6.676;2022-10-31T05:36:11;13.50;99.90
15777;DHT22;7989;51.198;6.676;2022-10-31T05:38:38;13.50;99.90
15777;DHT22;7989;51.198;6.676;2022-10-31T05:41:05;13.50;99.90
15777;DHT22;7989;51.198;6.676;2022-10-31T05:43:33;13.40;99.90
15777;DHT22;7989;51.198;6.676;2022-10-31T05:46:00;13.40;99.90
15777;DHT22;7989;51.198;6.676;2022-10-31T05:48:27;13.50;99.90
15777;DHT22;7989;51.198;6.676;2022-10-31T05:50:53;13.50;99.90
15777;DHT22;7989;51.198;6.676;2022-10-31T05:53:20;13.40;99.90
15777;DHT22;7989;51.198;6.676;2022-10-31T05:55:47;13.40;99.90
15777;DHT22;7989;51.198;6.676;2022-10-31T05:58:14;13.40;99.90
15777;DHT22;7989;51.198;6.676;2022-10-31T06:00:42;13.40;99.90
15777;DHT22;7989;51.198;6.676;2022-10-31T06:03:09;13.30;99.90
15777;DHT22;7989;51.198;6.676;2022-10-31T06:05:36;13.30;99.90
15777;DHT22;7989;51.198;6.676;2022-10-31T06:08:03;13.30;99.90
15777;DHT22;7989;51.198;6.676;2022-10-31T06:10:30;13.30;99.90
15777;DHT22;7989;51.198;6.676;2022-10-31T06:12:56;13.30;99.90
15777;DHT22;7989;51.198;6.676;2022-10-31T06:15:23;13.20;99.90
15777;DHT22;7989;51.198;6.676;2022-10-31T06:18:02;13.20;99.90
15777;DHT22;7989;51.198;6.676;2022-10-31T06:20:30;13.20;99.90
15777;DHT22;7989;51.198;6.676;2022-10-31T06:22:57;13.20;99.90
15777;DHT22;7989;51.198;6.676;2022-10-31T06:25:24;13.30;99.90
15777;DHT22;7989;51.198;6.676;2022-10-31T06:27:51;13.20;99.90
15777;DHT22;7989;51.198;6.676;2022-10-31T06:30:18;13.20;99.90
15777;DHT22;7989;51.198;6.676;2022-10-31T06:32:45;13.20;99.90
15777;DHT22;7989;51.198;6.676;2022-10-31T06:35:13;13.30;99.90
15777;DHT22;7989;51.198;6.676;2022-10-31T06:37:40;13.30;99.90
15777;DHT22;7989;51.198;6.676;2022-10-31T06:40:08;13.30;99.90
15777;DHT22;7989;51.198;6.676;2022-10-31T06:42:35;13.30;99.90
15777;DHT22;7989;51.198;6.676;2022-10-31T06:45:02;13.30;99.90
15777;DHT22;7989;51.198;6.676;2022-10-31T06:47:28;13.30;99.90
15777;DHT22;7989;51.198;6.676;2022-10-31T06:49:55;13.30;99.90
15777;DHT22;7989;51.198;6.676;2022-10-31T06:52:23;13.30;99.90
15777;DHT22;7989;51.198;6.676;2022-10-31T06:54:50;13.40;99.90
15777;DHT22;7989;51.198;6.676;2022-10-31T06:57:17;13.40;99.90
15777;DHT22;7989;51.198;6.676;2022-10-31T06:59:44;13.40;99.90
15777;DHT22;7989;51.198;6.676;2022-10-31T07:02:11;13.40;99.90
15777;DHT22;7989;51.198;6.676;2022-10-31T07:04:38;13.50;99.90
15777;DHT22;7989;51.198;6.676;2022-10-31T07:07:05;13.50;99.90
15777;DHT22;7989;51.198;6.676;2022-10-31T07:09:33;13.60;99.90
15777;DHT22;7989;51.198;6.676;2022-10-31T07:12:00;13.60;99.90
15777;DHT22;7989;51.198;6.676;2022-10-31T07:14:27;13.70;99.90
15777;DHT22;7989;51.198;6.676;2022-10-31T07:16:53;13.70;99.90
15777;DHT22;7989;51.198;6.676;2022-10-31T07:19:20;13.70;99.90
15777;DHT22;7989;51.198;6.676;2022-10-31T07:21:47;13.70;99.90
15777;DHT22;7989;51.198;6.676;2022-10-31T07:24:14;13.70;99.90
15777;DHT22;7989;51.198;6.676;2022-10-31T07:26:42;13.80;99.90
15777;DHT22;7989;51.198;6.676;2022-10-31T07:29:11;13.80;99.90
15777;DHT22;7989;51.198;6.676;2022-10-31T07:31:38;13.80;99.90
15777;DHT22;7989;51.198;6.676;2022-10-31T07:34:05;13.90;99.90
15777;DHT22;7989;51.198;6.676;2022-10-31T07:36:32;14.00;99.90
15777;DHT22;7989;51.198;6.676;2022-10-31T07:38:59;14.00;99.90
15777;DHT22;7989;51.198;6.676;2022-10-31T07:41:27;14.10;99.90
15777;DHT22;7989;51.198;6.676;2022-10-31T07:43:56;14.10;99.90
15777;DHT22;7989;51.198;6.676;2022-10-31T07:46:22;14.20;99.90
15777;DHT22;7989;51.198;6.676;2022-10-31T07:48:49;14.30;99.90
15777;DHT22;7989;51.198;6.676;2022-10-31T07:51:16;14.30;99.90
15777;DHT22;7989;51.198;6.676;2022-10-31T07:53:43;14.40;99.90
15777;DHT22;7989;51.198;6.676;2022-10-31T07:56:10;14.50;99.90
15777;DHT22;7989;51.198;6.676;2022-10-31T07:58:36;14.60;99.90
15777;DHT22;7989;51.198;6.676;2022-10-31T08:01:05;14.60;99.90
15777;DHT22;7989;51.198;6.676;2022-10-31T08:03:32;14.60;99.90
15777;DHT22;7989;51.198;6.676;2022-10-31T08:05:58;14.70;99.90
15777;DHT22;7989;51.198;6.676;2022-10-31T08:08:25;14.80;99.90
15777;DHT22;7989;51.198;6.676;2022-10-31T08:10:53;14.90;99.90
15777;DHT22;7989;51.198;6.676;2022-10-31T08:13:20;14.90;99.90
15777;DHT22;7989;51.198;6.676;2022-10-31T08:15:47;14.90;99.90
15777;DHT22;7989;51.198;6.676;2022-10-31T08:18:17;15.00;99.90
15777;DHT22;7989;51.198;6.676;2022-10-31T08:20:44;15.20;99.90
15777;DHT22;7989;51.198;6.676;2022-10-31T08:23:12;15.40;99.90
15777;DHT22;7989;51.198;6.676;2022-10-31T08:25:39;15.50;99.90
15777;DHT22;7989;51.198;6.676;2022-10-31T08:28:09;15.50;99.90
15777;DHT22;7989;51.198;6.676;2022-10-31T08:30:37;15.60;99.90
15777;DHT22;7989;51.198;6.676;2022-10-31T08:33:06;15.80;99.90
15777;DHT22;7989;51.198;6.676;2022-10-31T08:35:34;15.90;99.90
15777;DHT22;7989;51.198;6.676;2022-10-31T08:38:01;16.00;99.90
15777;DHT22;7989;51.198;6.676;2022-10-31T08:40:29;15.80;99.90
15777;DHT22;7989;51.198;6.676;2022-10-31T08:42:58;15.90;99.90
15777;DHT22;7989;51.198;6.676;2022-10-31T08:45:25;16.30;99.90
15777;DHT22;7989;51.198;6.676;2022-10-31T08:47:52;16.40;99.90
15777;DHT22;7989;51.198;6.676;2022-10-31T08:50:22;16.40;99.90
15777;DHT22;7989;51.198;6.676;2022-10-31T08:52:50;16.50;99.90
15777;DHT22;7989;51.198;6.676;2022-10-31T08:55:17;16.30;99.90
15777;DHT22;7989;51.198;6.676;2022-10-31T08:57:44;16.20;99.90
15777;DHT22;7989;51.198;6.676;2022-10-31T09:00:11;16.20;99.90
15777;DHT22;7989;51.198;6.676;2022-10-31T09:02:38;16.20;99.90
15777;DHT22;7989;51.198;6.676;2022-10-31T09:05:06;16.20;99.90
15777;DHT22;7989;51.198;6.676;2022-10-31T09:07:33;16.20;99.90
15777;DHT22;7989;51.198;6.676;2022-10-31T09:10:01;16.20;99.90
15777;DHT22;7989;51.198;6.676;2022-10-31T09:12:27;16.20;99.90
15777;DHT22;7989;51.198;6.676;2022-10-31T09:14:54;16.30;99.90
15777;DHT22;7989;51.198;6.676;2022-10-31T09:17:21;16.20;99.90
15777;DHT22;7989;51.198;6.676;2022-10-31T09:19:48;16.30;99.90
15777;DHT22;7989;51.198;6.676;2022-10-31T09:22:15;16.30;99.90
15777;DHT22;7989;51.198;6.676;2022-10-31T09:24:41;16.10;99.90
15777;DHT22;7989;51.198;6.676;2022-10-31T09:27:10;16.20;99.90
15777;DHT22;7989;51.198;6.676;2022-10-31T09:29:36;16.60;99.90
15777;DHT22;7989;51.198;6.676;2022-10-31T09:32:03;16.90;99.90
15777;DHT22;7989;51.198;6.676;2022-10-31T09:34:33;17.40;99.90
15777;DHT22;7989;51.198;6.676;2022-10-31T09:37:00;17.80;99.90
15777;DHT22;7989;51.198;6.676;2022-10-31T09:39:27;18.00;99.90
15777;DHT22;7989;51.198;6.676;2022-10-31T09:42:15;18.30;99.90
15777;DHT22;7989;51.198;6.676;2022-10-31T09:44:51;18.60;99.90
15777;DHT22;7989;51.198;6.676;2022-10-31T09:47:27;18.50;99.90
15777;DHT22;7989;51.198;6.676;2022-10-31T09:50:06;18.10;99.90
15777;DHT22;7989;51.198;6.676;2022-10-31T09:52:39;18.40;99.90
15777;DHT22;7989;51.198;6.676;2022-10-31T09:55:14;18.20;99.90
15777;DHT22;7989;51.198;6.676;2022-10-31T09:57:43;18.00;99.90
15777;DHT22;7989;51.198;6.676;2022-10-31T10:00:16;17.80;99.90
15777;DHT22;7989;51.198;6.676;2022-10-31T10:02:47;17.90;99.90
15777;DHT22;7989;51.198;6.676;2022-10-31T10:05:20;18.20;99.90
15777;DHT22;7989;51.198;6.676;2022-10-31T10:07:54;18.70;99.90
15777;DHT22;7989;51.198;6.676;2022-10-31T10:10:31;19.00;99.90
15777;DHT22;7989;51.198;6.676;2022-10-31T10:16:15;19.10;99.90
15777;DHT22;7989;51.198;6.676;2022-10-31T10:18:56;18.60;99.90
15777;DHT22;7989;51.198;6.676;2022-10-31T10:21:33;18.20;99.90
15777;DHT22;7989;51.198;6.676;2022-10-31T10:24:15;17.90;99.90
15777;DHT22;7989;51.198;6.676;2022-10-31T10:26:53;17.50;99.90
15777;DHT22;7989;51.198;6.676;2022-10-31T10:29:31;17.30;99.90
15777;DHT22;7989;51.198;6.676;2022-10-31T10:32:03;17.00;99.90
15777;DHT22;7989;51.198;6.676;2022-10-31T10:34:34;17.00;99.90
15777;DHT22;7989;51.198;6.676;2022-10-31T10:37:08;16.90;99.90
15777;DHT22;7989;51.198;6.676;2022-10-31T10:39:41;17.10;99.90
15777;DHT22;7989;51.198;6.676;2022-10-31T10:42:12;17.10;99.90
15777;DHT22;7989;51.198;6.676;2022-10-31T10:44:59;17.30;99.90
15777;DHT22;7989;51.198;6.676;2022-10-31T10:47:47;17.40;99.90
15777;DHT22;7989;51.198;6.676;2022-10-31T10:50:20;17.50;99.90
15777;DHT22;7989;51.198;6.676;2022-10-31T10:52:53;17.50;99.90
15777;DHT22;7989;51.198;6.676;2022-10-31T10:55:30;17.50;99.90
15777;DHT22;7989;51.198;6.676;2022-10-31T10:58:01;17.70;99.90
15777;DHT22;7989;51.198;6.676;2022-10-31T11:00:32;17.90;99.90
15777;DHT22;7989;51.198;6.676;2022-10-31T11:03:01;18.30;99.90
15777;DHT22;7989;51.198;6.676;2022-10-31T11:05:33;18.60;99.90
15777;DHT22;7989;51.198;6.676;2022-10-31T11:08:01;18.80;99.90
15777;DHT22;7989;51.198;6.676;2022-10-31T11:10:28;19.00;99.90
15777;DHT22;7989;51.198;6.676;2022-10-31T11:13:02;19.00;99.90
15777;DHT22;7989;51.198;6.676;2022-10-31T11:15:35;19.00;99.90
15777;DHT22;7989;51.198;6.676;2022-10-31T11:18:03;18.90;99.90
15777;DHT22;7989;51.198;6.676;2022-10-31T11:20:32;18.70;99.90
15777;DHT22;7989;51.198;6.676;2022-10-31T11:23:10;18.60;99.90
15777;DHT22;7989;51.198;6.676;2022-10-31T11:25:48;18.40;99.90
15777;DHT22;7989;51.198;6.676;2022-10-31T11:28:15;18.30;99.90
15777;DHT22;7989;51.198;6.676;2022-10-31T11:30:46;18.30;99.90
15777;DHT22;7989;51.198;6.676;2022-10-31T11:33:19;18.40;99.90
15777;DHT22;7989;51.198;6.676;2022-10-31T11:35:48;18.40;99.90
15777;DHT22;7989;51.198;6.676;2022-10-31T11:38:18;18.40;99.90
15777;DHT22;7989;51.198;6.676;2022-10-31T11:40:54;18.50;99.90
15777;DHT22;7989;51.198;6.676;2022-10-31T11:43:21;18.50;99.90
15777;DHT22;7989;51.198;6.676;2022-10-31T11:45:50;18.50;99.90
15777;DHT22;7989;51.198;6.676;2022-10-31T11:48:19;18.60;99.90
15777;DHT22;7989;51.198;6.676;2022-10-31T11:50:51;18.50;99.90
15777;DHT22;7989;51.198;6.676;2022-10-31T11:53:21;18.60;99.90
15777;DHT22;7989;51.198;6.676;2022-10-31T11:56:03;18.60;99.90
15777;DHT22;7989;51.198;6.676;2022-10-31T11:58:31;18.70;99.90
15777;DHT22;7989;51.198;6.676;2022-10-31T12:00:59;18.60;99.90
15777;DHT22;7989;51.198;6.676;2022-10-31T12:03:33;18.70;99.90
15777;DHT22;7989;51.198;6.676;2022-10-31T12:06:05;18.70;99.90
15777;DHT22;7989;51.198;6.676;2022-10-31T12:08:35;18.80;99.90
15777;DHT22;7989;51.198;6.676;2022-10-31T12:11:08;18.70;99.90
15777;DHT22;7989;51.198;6.676;2022-10-31T12:13:39;18.80;99.90
15777;DHT22;7989;51.198;6.676;2022-10-31T12:16:17;18.80;99.90
15777;DHT22;7989;51.198;6.676;2022-10-31T12:18:54;18.90;99.90
15777;DHT22;7989;51.198;6.676;2022-10-31T12:21:31;19.10;99.90
15777;DHT22;7989;51.198;6.676;2022-10-31T12:24:10;19.30;99.90
15777;DHT22;7989;51.198;6.676;2022-10-31T12:26:45;19.40;99.90
15777;DHT22;7989;51.198;6.676;2022-10-31T12:29:29;19.50;99.90
15777;DHT22;7989;51.198;6.676;2022-10-31T12:32:13;19.50;99.90
15777;DHT22;7989;51.198;6.676;2022-10-31T12:35:02;19.60;99.90
15777;DHT22;7989;51.198;6.676;2022-10-31T12:37:50;19.60;99.90
15777;DHT22;7989;51.198;6.676;2022-10-31T12:40:51;19.70;99.90
15777;DHT22;7989;51.198;6.676;2022-10-31T12:43:33;19.60;99.90
15777;DHT22;7989;51.198;6.676;2022-10-31T12:46:03;19.60;99.90
15777;DHT22;7989;51.198;6.676;2022-10-31T12:49:05;19.60;99.90
15777;DHT22;7989;51.198;6.676;2022-10-31T12:51:43;19.50;99.90
15777;DHT22;7989;51.198;6.676;2022-10-31T12:54:30;19.40;99.90
15777;DHT22;7989;51.198;6.676;2022-10-31T12:57:06;19.40;99.90
15777;DHT22;7989;51.198;6.676;2022-10-31T12:59:39;19.30;99.90
15777;DHT22;7989;51.198;6.676;2022-10-31T13:02:13;19.30;99.90
15777;DHT22;7989;51.198;6.676;2022-10-31T13:04:48;19.20;99.90
15777;DHT22;7989;51.198;6.676;2022-10-31T13:07:21;19.20;99.90
15777;DHT22;7989;51.198;6.676;2022-10-31T13:09:54;19.30;99.90
15777;DHT22;7989;51.198;6.676;2022-10-31T13:12:24;19.30;99.90
15777;DHT22;7989;51.198;6.676;2022-10-31T13:14:55;19.30;99.90
15777;DHT22;7989;51.198;6.676;2022-10-31T13:17:27;19.30;99.90
15777;DHT22;7989;51.198;6.676;2022-10-31T13:20:11;19.30;99.90
15777;DHT22;7989;51.198;6.676;2022-10-31T13:22:43;19.30;99.90
15777;DHT22;7989;51.198;6.676;2022-10-31T13:25:14;19.30;99.90
15777;DHT22;7989;51.198;6.676;2022-10-31T13:27:48;19.40;99.90
15777;DHT22;7989;51.198;6.676;2022-10-31T13:30:18;19.40;99.90
15777;DHT22;7989;51.198;6.676;2022-10-31T13:32:49;19.40;99.90
15777;DHT22;7989;51.198;6.676;2022-10-31T13:35:23;19.40;99.90
15777;DHT22;7989;51.198;6.676;2022-10-31T13:38:02;19.40;99.90
15777;DHT22;7989;51.198;6.676;2022-10-31T13:40:40;19.40;99.90
15777;DHT22;7989;51.198;6.676;2022-10-31T13:43:16;19.40;99.90
15777;DHT22;7989;51.198;6.676;2022-10-31T13:45:49;19.50;99.90
15777;DHT22;7989;51.198;6.676;2022-10-31T13:48:36;19.50;99.90
15777;DHT22;7989;51.198;6.676;2022-10-31T13:51:07;19.50;99.90
15777;DHT22;7989;51.198;6.676;2022-10-31T13:53:55;19.50;99.90
15777;DHT22;7989;51.198;6.676;2022-10-31T13:56:25;19.50;99.90
15777;DHT22;7989;51.198;6.676;2022-10-31T13:59:00;19.40;99.90
15777;DHT22;7989;51.198;6.676;2022-10-31T14:01:27;19.30;99.90
15777;DHT22;7989;51.198;6.676;2022-10-31T14:04:02;19.30;99.90
15777;DHT22;7989;51.198;6.676;2022-10-31T14:06:40;19.30;99.90
15777;DHT22;7989;51.198;6.676;2022-10-31T14:09:25;19.30;99.90
15777;DHT22;7989;51.198;6.676;2022-10-31T14:11:53;19.40;99.90
15777;DHT22;7989;51.198;6.676;2022-10-31T14:14:29;19.40;99.90
15777;DHT22;7989;51.198;6.676;2022-10-31T14:16:57;19.40;99.90
15777;DHT22;7989;51.198;6.676;2022-10-31T14:19:26;19.30;99.90
15777;DHT22;7989;51.198;6.676;2022-10-31T14:21:54;19.40;99.90
15777;DHT22;7989;51.198;6.676;2022-10-31T14:24:33;19.30;99.90
15777;DHT22;7989;51.198;6.676;2022-10-31T14:27:02;19.30;99.90
15777;DHT22;7989;51.198;6.676;2022-10-31T14:29:30;19.30;99.90
15777;DHT22;7989;51.198;6.676;2022-10-31T14:32:05;19.20;99.90
15777;DHT22;7989;51.198;6.676;2022-10-31T14:34:38;19.20;99.90
15777;DHT22;7989;51.198;6.676;2022-10-31T14:37:35;19.10;99.90
15777;DHT22;7989;51.198;6.676;2022-10-31T14:40:14;19.20;99.90
15777;DHT22;7989;51.198;6.676;2022-10-31T14:45:49;19.10;99.90
15777;DHT22;7989;51.198;6.676;2022-10-31T14:48:54;19.10;99.90
15777;DHT22;7989;51.198;6.676;2022-10-31T14:51:27;19.20;99.90
15777;DHT22;7989;51.198;6.676;2022-10-31T14:53:57;19.20;99.90
15777;DHT22;7989;51.198;6.676;2022-10-31T14:56:27;19.10;99.90
15777;DHT22;7989;51.198;6.676;2022-10-31T14:58:57;19.10;99.90
15777;DHT22;7989;51.198;6.676;2022-10-31T15:01:27;19.10;99.90
15777;DHT22;7989;51.198;6.676;2022-10-31T15:03:57;19.10;99.90
15777;DHT22;7989;51.198;6.676;2022-10-31T15:06:25;19.00;99.90
15777;DHT22;7989;51.198;6.676;2022-10-31T15:08:53;19.00;99.90
15777;DHT22;7989;51.198;6.676;2022-10-31T15:11:23;19.00;99.90
15777;DHT22;7989;51.198;6.676;2022-10-31T15:13:52;19.00;99.90
15777;DHT22;7989;51.198;6.676;2022-10-31T15:16:20;19.00;99.90
15777;DHT22;7989;51.198;6.676;2022-10-31T15:18:51;18.90;99.90
15777;DHT22;7989;51.198;6.676;2022-10-31T15:21:19;19.00;99.90
15777;DHT22;7989;51.198;6.676;2022-10-31T15:23:47;18.90;99.90
15777;DHT22;7989;51.198;6.676;2022-10-31T15:26:18;19.00;99.90
15777;DHT22;7989;51.198;6.676;2022-10-31T15:28:57;19.00;99.90
15777;DHT22;7989;51.198;6.676;2022-10-31T15:31:24;19.00;99.90
15777;DHT22;7989;51.198;6.676;2022-10-31T15:33:52;19.00;99.90
15777;DHT22;7989;51.198;6.676;2022-10-31T15:36:21;19.00;99.90
15777;DHT22;7989;51.198;6.676;2022-10-31T15:38:49;18.90;99.90
15777;DHT22;7989;51.198;6.676;2022-10-31T15:41:26;18.90;99.90
15777;DHT22;7989;51.198;6.676;2022-10-31T15:43:59;18.90;99.90
15777;DHT22;7989;51.198;6.676;2022-10-31T15:46:27;18.90;99.90
15777;DHT22;7989;51.198;6.676;2022-10-31T15:48:54;18.90;99.90
15777;DHT22;7989;51.198;6.676;2022-10-31T15:51:26;18.80;99.90
15777;DHT22;7989;51.198;6.676;2022-10-31T15:53:55;18.80;99.90
15777;DHT22;7989;51.198;6.676;2022-10-31T15:56:24;18.80;99.90
15777;DHT22;7989;51.198;6.676;2022-10-31T15:58:53;18.70;99.90
15777;DHT22;7989;51.198;6.676;2022-10-31T16:01:23;18.70;99.90
15777;DHT22;7989;51.198;6.676;2022-10-31T16:04:03;18.60;99.90
15777;DHT22;7989;51.198;6.676;2022-10-31T16:06:32;18.60;99.90
15777;DHT22;7989;51.198;6.676;2022-10-31T16:08:59;18.60;99.90
15777;DHT22;7989;51.198;6.676;2022-10-31T16:11:34;18.60;99.90
15777;DHT22;7989;51.198;6.676;2022-10-31T16:14:04;18.60;99.90
15777;DHT22;7989;51.198;6.676;2022-10-31T16:16:42;18.60;99.90